Time;durP1;ratioP1;P1;durP2;ratioP2;P2;SDS_P1;SDS_P2;PMS_P1;PMS_P2;Temp;Humidity;BMP_temperature;BMP_pressure;BME280_temperature;BME280_humidity;BME280_pressure;Samples;Min_cycle;Max_cycle;Signal;HPM_P1;HPM_P2
2022/12/01 00:01:35;;;;;;;;;;;20.00;46.70;;;;;;5062870;28;20506;-55
2022/12/01 00:04:00;;;;;;;;;;;20.00;46.80;;;;;;5054990;28;19912;-55
2022/12/01 00:06:26;;;;;;;;;;;20.00;46.80;;;;;;5052406;28;19912;-54
2022/12/01 00:11:35;;;;;;;;;;;20.00;46.90;;;;;;5054918;28;19951;-55
2022/12/01 00:14:01;;;;;;;;;;;20.00;46.90;;;;;;5060586;27;20364;-57
2022/12/01 00:16:26;;;;;;;;;;;20.00;46.80;;;;;;5057423;28;19921;-56
2022/12/01 00:18:52;;;;;;;;;;;20.00;46.80;;;;;;5058595;28;19913;-55
2022/12/01 00:21:18;;;;;;;;;;;20.00;46.80;;;;;;5060383;28;19935;-54
2022/12/01 00:23:46;;;;;;;;;;;20.00;46.80;;;;;;5057105;27;19921;-55
2022/12/01 00:26:11;;;;;;;;;;;20.00;46.80;;;;;;5057262;28;19919;-55
2022/12/01 00:28:37;;;;;;;;;;;19.90;46.80;;;;;;5051718;28;19913;-54
2022/12/01 00:31:09;;;;;;;;;;;19.90;46.80;;;;;;5056810;28;20275;-56
2022/12/01 00:33:34;;;;;;;;;;;19.90;46.80;;;;;;5059995;28;19916;-55
2022/12/01 00:36:00;;;;;;;;;;;19.90;46.70;;;;;;5053733;28;19924;-55
2022/12/01 00:38:25;;;;;;;;;;;20.00;46.80;;;;;;5053751;27;19956;-55
2022/12/01 00:40:51;;;;;;;;;;;19.90;46.70;;;;;;5052340;28;19920;-55
2022/12/01 00:43:16;;;;;;;;;;;19.90;46.70;;;;;;5060693;27;19913;-55
2022/12/01 00:45:42;;;;;;;;;;;19.90;46.70;;;;;;5051771;28;20007;-54
2022/12/01 00:48:07;;;;;;;;;;;19.90;46.70;;;;;;5054051;27;19924;-55
2022/12/01 00:50:33;;;;;;;;;;;19.90;46.70;;;;;;5058676;28;19940;-55
2022/12/01 00:52:58;;;;;;;;;;;19.90;46.70;;;;;;5059371;28;20372;-55
2022/12/01 00:55:24;;;;;;;;;;;19.90;46.60;;;;;;5055611;28;19916;-55
2022/12/01 00:57:49;;;;;;;;;;;19.90;46.50;;;;;;5051899;28;19973;-55
2022/12/01 01:00:16;;;;;;;;;;;19.90;46.60;;;;;;5055595;28;19921;-54
2022/12/01 01:02:41;;;;;;;;;;;19.80;46.60;;;;;;5052753;28;20377;-55
2022/12/01 01:05:07;;;;;;;;;;;19.80;46.60;;;;;;5059050;27;19963;-55
2022/12/01 01:07:32;;;;;;;;;;;19.80;46.70;;;;;;5054799;28;20444;-55
2022/12/01 01:09:58;;;;;;;;;;;19.80;46.60;;;;;;5055311;28;20268;-54
2022/12/01 01:12:23;;;;;;;;;;;19.80;46.60;;;;;;5052716;28;20288;-56
2022/12/01 01:14:49;;;;;;;;;;;19.80;46.60;;;;;;5055166;28;20201;-54
2022/12/01 01:17:14;;;;;;;;;;;19.80;46.50;;;;;;5051786;28;19920;-54
2022/12/01 01:19:40;;;;;;;;;;;19.80;46.50;;;;;;5055655;28;19927;-55
2022/12/01 01:22:05;;;;;;;;;;;19.80;46.50;;;;;;5067133;27;19936;-55
2022/12/01 01:24:30;;;;;;;;;;;19.80;46.50;;;;;;5053003;28;19920;-55
2022/12/01 01:26:56;;;;;;;;;;;19.80;46.50;;;;;;5053453;28;19940;-54
2022/12/01 01:29:21;;;;;;;;;;;19.70;46.40;;;;;;5054310;28;19913;-55
2022/12/01 01:31:47;;;;;;;;;;;19.80;46.60;;;;;;5057535;28;20008;-57
2022/12/01 01:34:12;;;;;;;;;;;19.70;46.50;;;;;;5056517;27;19913;-55
2022/12/01 01:36:38;;;;;;;;;;;19.80;46.60;;;;;;5050090;27;19920;-55
2022/12/01 01:39:03;;;;;;;;;;;19.70;46.60;;;;;;5053177;28;20447;-56
2022/12/01 01:41:29;;;;;;;;;;;19.70;46.50;;;;;;5059044;27;19921;-55
2022/12/01 01:43:55;;;;;;;;;;;19.70;46.50;;;;;;5056483;28;20057;-56
2022/12/01 01:46:22;;;;;;;;;;;19.70;46.50;;;;;;5055163;28;19964;-55
2022/12/01 01:48:50;;;;;;;;;;;19.70;46.50;;;;;;5055194;28;19927;-54
2022/12/01 01:51:16;;;;;;;;;;;19.70;46.50;;;;;;5055927;28;19920;-55
2022/12/01 01:53:41;;;;;;;;;;;19.70;46.50;;;;;;5055426;27;19917;-56
2022/12/01 01:56:07;;;;;;;;;;;19.70;46.50;;;;;;5038770;28;19970;-54
2022/12/01 01:58:33;;;;;;;;;;;19.70;46.50;;;;;;5051917;28;19965;-55
2022/12/01 02:00:58;;;;;;;;;;;19.60;46.40;;;;;;5036297;28;19916;-55
2022/12/01 02:03:24;;;;;;;;;;;19.60;46.40;;;;;;5053010;27;19924;-56
2022/12/01 02:05:49;;;;;;;;;;;19.60;46.40;;;;;;5055724;28;19916;-55
2022/12/01 02:08:14;;;;;;;;;;;19.70;46.40;;;;;;5042772;27;19916;-55
2022/12/01 02:10:57;;;;;;;;;;;19.70;46.40;;;;;;5055429;28;19920;-55
2022/12/01 02:13:30;;;;;;;;;;;19.70;46.50;;;;;;5043571;28;19913;-54
2022/12/01 02:16:31;;;;;;;;;;;19.70;46.50;;;;;;5032731;28;19916;-54
2022/12/01 02:19:06;;;;;;;;;;;19.60;46.40;;;;;;5083091;28;19913;-55
2022/12/01 02:21:41;;;;;;;;;;;19.60;46.40;;;;;;5041745;28;19921;-54
2022/12/01 02:24:15;;;;;;;;;;;19.60;46.50;;;;;;5053614;28;20382;-55
2022/12/01 02:26:43;;;;;;;;;;;19.60;46.60;;;;;;5056171;28;19916;-55
2022/12/01 02:29:12;;;;;;;;;;;19.60;46.50;;;;;;5053789;28;19920;-56
2022/12/01 02:31:42;;;;;;;;;;;19.60;46.40;;;;;;5055627;28;19924;-55
2022/12/01 02:34:12;;;;;;;;;;;19.70;46.40;;;;;;5055637;28;19915;-55
2022/12/01 02:36:42;;;;;;;;;;;19.70;46.10;;;;;;5035720;28;19956;-55
2022/12/01 02:39:09;;;;;;;;;;;19.80;46.00;;;;;;5041468;27;20391;-55
2022/12/01 02:41:39;;;;;;;;;;;19.80;45.90;;;;;;5036919;28;19919;-55
2022/12/01 02:44:06;;;;;;;;;;;19.90;45.90;;;;;;5061028;27;19948;-55
2022/12/01 02:46:36;;;;;;;;;;;20.00;45.80;;;;;;5059362;28;20295;-55
2022/12/01 02:49:03;;;;;;;;;;;20.00;45.70;;;;;;5059335;28;20341;-55
2022/12/01 02:51:29;;;;;;;;;;;20.00;45.60;;;;;;5055166;27;19916;-55
2022/12/01 02:53:58;;;;;;;;;;;20.00;45.50;;;;;;5058196;28;19940;-55
2022/12/01 02:56:23;;;;;;;;;;;20.10;45.50;;;;;;5057286;27;19962;-55
2022/12/01 02:58:49;;;;;;;;;;;20.10;45.40;;;;;;5053691;28;19952;-55
2022/12/01 03:01:24;;;;;;;;;;;20.10;45.40;;;;;;5047945;27;19920;-56
2022/12/01 03:04:00;;;;;;;;;;;20.10;45.40;;;;;;5043931;27;19917;-55
2022/12/01 03:06:37;;;;;;;;;;;20.10;45.40;;;;;;5060838;27;19920;-55
2022/12/01 03:09:02;;;;;;;;;;;20.10;45.40;;;;;;5058150;28;19958;-56
2022/12/01 03:11:33;;;;;;;;;;;20.10;45.40;;;;;;5058114;27;19917;-55
2022/12/01 03:14:04;;;;;;;;;;;20.00;45.40;;;;;;5050712;27;20054;-55
2022/12/01 03:16:35;;;;;;;;;;;20.00;45.40;;;;;;5056978;28;19913;-55
2022/12/01 03:19:12;;;;;;;;;;;20.00;45.40;;;;;;5039919;27;20383;-56
2022/12/01 03:21:58;;;;;;;;;;;20.00;45.40;;;;;;5030906;27;20290;-55
2022/12/01 03:24:24;;;;;;;;;;;20.00;46.10;;;;;;5029436;27;19921;-55
2022/12/01 03:26:50;;;;;;;;;;;20.00;45.50;;;;;;5027024;27;19952;-54
2022/12/01 03:29:20;;;;;;;;;;;20.00;45.40;;;;;;5024242;27;19940;-55
2022/12/01 03:31:49;;;;;;;;;;;20.00;45.50;;;;;;5018787;28;19917;-56
2022/12/01 03:34:15;;;;;;;;;;;19.80;45.40;;;;;;5022090;27;19920;-55
2022/12/01 03:36:41;;;;;;;;;;;20.00;45.60;;;;;;5021280;27;19917;-56
2022/12/01 03:39:08;;;;;;;;;;;19.90;45.50;;;;;;5017403;28;20304;-55
2022/12/01 03:41:36;;;;;;;;;;;19.90;45.50;;;;;;5029280;27;20770;-55
2022/12/01 03:44:09;;;;;;;;;;;19.90;45.50;;;;;;5028839;27;19913;-55
2022/12/01 03:46:45;;;;;;;;;;;19.90;45.50;;;;;;5019555;28;19917;-54
2022/12/01 03:49:10;;;;;;;;;;;19.90;45.50;;;;;;5022163;27;19917;-55
2022/12/01 03:51:42;;;;;;;;;;;19.90;45.50;;;;;;5027644;27;19940;-54
2022/12/01 03:54:14;;;;;;;;;;;19.90;46.10;;;;;;5017874;28;19920;-55
2022/12/01 03:56:43;;;;;;;;;;;19.90;45.40;;;;;;5020125;28;20051;-55
2022/12/01 03:59:09;;;;;;;;;;;19.90;45.40;;;;;;5023794;28;19921;-55
2022/12/01 04:01:34;;;;;;;;;;;19.90;45.40;;;;;;5014959;28;19917;-55
2022/12/01 04:04:06;;;;;;;;;;;19.90;45.40;;;;;;5014793;28;19932;-55
2022/12/01 04:06:32;;;;;;;;;;;19.90;45.40;;;;;;5025998;27;19913;-55
2022/12/01 04:08:57;;;;;;;;;;;19.90;45.40;;;;;;5021852;27;20373;-55
2022/12/01 04:14:07;;;;;;;;;;;19.90;45.40;;;;;;5016672;28;19935;-55
2022/12/01 04:16:32;;;;;;;;;;;19.90;45.40;;;;;;5027580;27;19913;-58
2022/12/01 04:18:58;;;;;;;;;;;19.90;45.40;;;;;;5023639;27;20013;-55
2022/12/01 04:21:23;;;;;;;;;;;19.80;45.30;;;;;;5050589;28;19928;-56
2022/12/01 04:24:01;;;;;;;;;;;19.90;45.50;;;;;;5052729;28;19924;-56
2022/12/01 04:26:31;;;;;;;;;;;19.80;45.40;;;;;;5058658;27;20284;-56
2022/12/01 04:28:57;;;;;;;;;;;19.80;45.40;;;;;;5053815;28;20037;-55
2022/12/01 04:31:22;;;;;;;;;;;19.80;45.40;;;;;;5056690;28;19916;-54
2022/12/01 04:33:48;;;;;;;;;;;19.80;45.40;;;;;;5055641;28;19924;-55
2022/12/01 04:36:13;;;;;;;;;;;19.80;45.40;;;;;;5051118;28;19931;-55
2022/12/01 04:38:39;;;;;;;;;;;19.80;45.50;;;;;;5058040;28;20015;-56
2022/12/01 04:41:10;;;;;;;;;;;19.80;45.50;;;;;;5053116;28;19917;-55
2022/12/01 04:43:36;;;;;;;;;;;19.80;45.50;;;;;;5053579;28;20030;-55
2022/12/01 04:46:01;;;;;;;;;;;19.80;45.40;;;;;;5058041;28;20004;-56
2022/12/01 04:48:27;;;;;;;;;;;19.80;45.30;;;;;;5056681;28;19977;-54
2022/12/01 04:50:52;;;;;;;;;;;19.80;45.40;;;;;;5053422;28;19923;-54
2022/12/01 04:53:18;;;;;;;;;;;19.80;45.30;;;;;;5059212;28;20387;-54
2022/12/01 04:55:43;;;;;;;;;;;19.80;45.40;;;;;;5055380;28;20298;-55
2022/12/01 04:58:08;;;;;;;;;;;19.80;45.40;;;;;;5052103;27;20477;-55
2022/12/01 05:00:34;;;;;;;;;;;19.80;45.30;;;;;;5053381;28;19923;-55
2022/12/01 05:02:59;;;;;;;;;;;19.80;45.30;;;;;;5054326;27;19920;-54
2022/12/01 05:05:25;;;;;;;;;;;19.80;45.40;;;;;;5059645;27;20397;-55
2022/12/01 05:07:50;;;;;;;;;;;19.80;45.40;;;;;;5056623;27;19969;-54
2022/12/01 05:10:17;;;;;;;;;;;19.80;45.40;;;;;;5055674;28;20022;-55
2022/12/01 05:12:45;;;;;;;;;;;19.80;45.40;;;;;;5053255;28;20465;-55
2022/12/01 05:15:10;;;;;;;;;;;19.80;45.40;;;;;;5055107;28;20391;-55
2022/12/01 05:17:36;;;;;;;;;;;19.80;45.40;;;;;;5060634;28;19937;-55
2022/12/01 05:22:45;;;;;;;;;;;19.70;45.30;;;;;;5054164;27;20056;-55
2022/12/01 05:25:11;;;;;;;;;;;19.80;45.50;;;;;;5055345;28;20388;-55
2022/12/01 05:27:36;;;;;;;;;;;19.70;45.40;;;;;;5056588;28;20384;-55
2022/12/01 05:30:02;;;;;;;;;;;19.70;45.30;;;;;;5055294;27;21211;-57
2022/12/01 05:32:27;;;;;;;;;;;19.70;45.40;;;;;;5056677;28;20283;-54
2022/12/01 05:34:53;;;;;;;;;;;19.70;45.40;;;;;;5053525;27;19924;-55
2022/12/01 05:37:18;;;;;;;;;;;19.70;45.40;;;;;;5054103;28;19920;-55
2022/12/01 05:39:44;;;;;;;;;;;19.70;45.40;;;;;;5053048;28;19916;-55
2022/12/01 05:42:09;;;;;;;;;;;19.70;45.30;;;;;;5053241;28;19956;-55
2022/12/01 05:44:35;;;;;;;;;;;19.70;45.20;;;;;;5053424;28;20319;-55
2022/12/01 05:47:00;;;;;;;;;;;19.70;45.20;;;;;;5054583;28;19916;-55
2022/12/01 05:49:25;;;;;;;;;;;19.70;45.20;;;;;;5053723;28;19970;-55
2022/12/01 05:51:51;;;;;;;;;;;19.80;45.30;;;;;;5053271;28;19920;-55
2022/12/01 05:54:16;;;;;;;;;;;19.70;45.80;;;;;;5052676;28;19913;-54
2022/12/01 05:56:42;;;;;;;;;;;19.70;45.20;;;;;;5056333;28;19921;-54
2022/12/01 05:59:07;;;;;;;;;;;19.70;45.30;;;;;;5053386;28;19919;-55
2022/12/01 06:01:33;;;;;;;;;;;19.70;45.20;;;;;;5056277;28;19975;-55
2022/12/01 06:03:58;;;;;;;;;;;19.70;45.20;;;;;;5048232;27;19928;-55
2022/12/01 06:06:23;;;;;;;;;;;19.70;45.20;;;;;;5055382;28;19916;-55
2022/12/01 06:08:49;;;;;;;;;;;19.70;45.20;;;;;;5052322;28;19952;-56
2022/12/01 06:11:14;;;;;;;;;;;19.70;45.30;;;;;;5052632;28;19921;-55
2022/12/01 06:13:40;;;;;;;;;;;19.70;45.20;;;;;;5053246;28;20407;-54
2022/12/01 06:16:05;;;;;;;;;;;19.70;45.20;;;;;;5050944;28;20360;-56
2022/12/01 06:18:32;;;;;;;;;;;19.70;45.30;;;;;;5048549;27;20395;-54
2022/12/01 06:20:57;;;;;;;;;;;19.70;45.30;;;;;;5047171;28;20407;-55
2022/12/01 06:23:23;;;;;;;;;;;19.70;45.20;;;;;;5071170;27;19964;-55
2022/12/01 06:25:48;;;;;;;;;;;19.70;45.30;;;;;;5055816;28;19917;-54
2022/12/01 06:28:14;;;;;;;;;;;19.70;45.20;;;;;;5055151;28;19917;-55
2022/12/01 06:30:39;;;;;;;;;;;19.70;45.20;;;;;;5052836;28;19925;-55
2022/12/01 06:33:04;;;;;;;;;;;19.60;45.10;;;;;;5064323;27;20315;-55
2022/12/01 06:35:30;;;;;;;;;;;19.70;45.20;;;;;;5051012;28;19917;-54
2022/12/01 06:37:55;;;;;;;;;;;19.70;45.30;;;;;;5050627;28;19916;-55
2022/12/01 06:40:21;;;;;;;;;;;19.60;45.20;;;;;;5051937;28;19916;-55
2022/12/01 06:42:46;;;;;;;;;;;19.60;45.20;;;;;;5052859;27;20313;-54
2022/12/01 06:45:12;;;;;;;;;;;19.60;45.20;;;;;;5061342;27;19920;-55
2022/12/01 06:47:37;;;;;;;;;;;19.60;45.20;;;;;;5056736;27;19924;-54
2022/12/01 06:50:04;;;;;;;;;;;19.60;45.20;;;;;;5053781;28;19917;-55
2022/12/01 06:52:30;;;;;;;;;;;19.60;45.20;;;;;;5050509;28;19961;-55
2022/12/01 06:54:55;;;;;;;;;;;19.70;45.20;;;;;;5051288;27;19916;-55
2022/12/01 06:57:20;;;;;;;;;;;19.60;45.10;;;;;;5054315;28;19920;-55
2022/12/01 06:59:46;;;;;;;;;;;19.60;45.10;;;;;;5059364;27;20004;-54
2022/12/01 07:02:11;;;;;;;;;;;19.70;45.20;;;;;;5054178;28;19921;-54
2022/12/01 07:04:37;;;;;;;;;;;19.60;45.20;;;;;;5040953;28;19921;-53
2022/12/01 07:07:05;;;;;;;;;;;19.70;45.20;;;;;;5053096;28;19912;-56
2022/12/01 07:09:30;;;;;;;;;;;19.60;45.10;;;;;;5049412;28;20616;-55
2022/12/01 07:11:56;;;;;;;;;;;19.60;45.10;;;;;;5051358;28;19924;-55
2022/12/01 07:14:22;;;;;;;;;;;19.60;45.10;;;;;;5055566;27;19913;-54
2022/12/01 07:16:48;;;;;;;;;;;19.60;45.10;;;;;;5053174;27;20015;-55
2022/12/01 07:19:13;;;;;;;;;;;19.60;45.10;;;;;;5050195;27;20063;-55
2022/12/01 07:21:38;;;;;;;;;;;19.60;45.20;;;;;;5051038;28;19921;-56
2022/12/01 07:24:04;;;;;;;;;;;19.60;45.10;;;;;;5056118;28;19913;-56
2022/12/01 07:26:30;;;;;;;;;;;19.60;45.10;;;;;;5052938;27;20342;-55
2022/12/01 07:28:55;;;;;;;;;;;19.60;45.10;;;;;;5050817;28;20015;-55
2022/12/01 07:31:20;;;;;;;;;;;19.60;45.10;;;;;;5056591;28;20020;-55
2022/12/01 07:33:46;;;;;;;;;;;19.60;45.10;;;;;;5055932;28;19916;-53
2022/12/01 07:36:12;;;;;;;;;;;19.60;45.10;;;;;;5062289;27;19918;-55
2022/12/01 07:38:37;;;;;;;;;;;19.60;45.10;;;;;;5040408;27;20003;-55
2022/12/01 07:41:08;;;;;;;;;;;19.60;45.10;;;;;;5052605;28;20355;-56
2022/12/01 07:43:34;;;;;;;;;;;19.60;45.10;;;;;;5056155;28;19930;-54
2022/12/01 07:46:23;;;;;;;;;;;19.60;45.80;;;;;;5054530;27;19917;-55
2022/12/01 07:48:48;;;;;;;;;;;19.60;45.10;;;;;;5047984;28;19917;-55
2022/12/01 07:51:15;;;;;;;;;;;19.60;45.10;;;;;;5058189;28;19917;-55
2022/12/01 07:53:41;;;;;;;;;;;19.60;45.10;;;;;;5055508;28;20151;-55
2022/12/01 07:56:06;;;;;;;;;;;19.60;45.10;;;;;;5054047;28;19990;-54
2022/12/01 07:58:32;;;;;;;;;;;19.60;45.10;;;;;;5066228;27;19917;-56
2022/12/01 08:00:57;;;;;;;;;;;19.60;45.10;;;;;;5057567;27;19916;-55
2022/12/01 08:03:22;;;;;;;;;;;19.60;45.10;;;;;;5063286;27;19923;-55
2022/12/01 08:05:56;;;;;;;;;;;19.60;45.10;;;;;;5053910;28;19948;-54
2022/12/01 08:08:21;;;;;;;;;;;19.60;45.10;;;;;;5052085;28;19917;-55
2022/12/01 08:10:46;;;;;;;;;;;19.60;45.10;;;;;;5055553;28;20325;-55
2022/12/01 08:13:12;;;;;;;;;;;19.60;45.20;;;;;;5057926;28;19951;-55
2022/12/01 08:15:37;;;;;;;;;;;19.60;45.20;;;;;;5058331;28;19917;-55
2022/12/01 08:18:03;;;;;;;;;;;19.60;45.20;;;;;;5051848;28;19917;-55
2022/12/01 08:20:28;;;;;;;;;;;19.60;45.20;;;;;;5058116;28;19932;-55
2022/12/01 08:22:54;;;;;;;;;;;19.50;45.10;;;;;;5060586;28;20026;-56
2022/12/01 08:25:19;;;;;;;;;;;19.60;45.20;;;;;;5052996;27;19948;-54
2022/12/01 08:27:44;;;;;;;;;;;19.60;45.20;;;;;;5056167;27;19921;-55
2022/12/01 08:30:10;;;;;;;;;;;19.60;46.00;;;;;;5070103;27;19920;-55
2022/12/01 08:32:36;;;;;;;;;;;19.50;45.40;;;;;;5076252;27;19917;-55
2022/12/01 08:35:01;;;;;;;;;;;19.60;45.80;;;;;;5057598;28;19957;-56
2022/12/01 08:37:26;;;;;;;;;;;19.80;45.60;;;;;;5053755;27;19957;-55
2022/12/01 08:39:52;;;;;;;;;;;20.10;45.20;;;;;;5056331;28;19921;-55
2022/12/01 08:42:17;;;;;;;;;;;20.40;44.70;;;;;;5064209;27;20028;-55
2022/12/01 08:44:43;;;;;;;;;;;20.60;44.40;;;;;;5054632;28;19959;-55
2022/12/01 08:47:08;;;;;;;;;;;20.80;44.20;;;;;;5054875;28;19924;-56
2022/12/01 08:49:34;;;;;;;;;;;21.00;43.90;;;;;;5052670;28;19932;-55
2022/12/01 08:51:59;;;;;;;;;;;21.10;43.70;;;;;;5051498;27;19925;-55
2022/12/01 08:54:24;;;;;;;;;;;21.20;43.50;;;;;;5067277;27;19920;-55
2022/12/01 08:56:50;;;;;;;;;;;21.30;43.40;;;;;;5059901;28;19912;-55
2022/12/01 08:59:15;;;;;;;;;;;21.40;43.20;;;;;;5057209;27;19963;-56
2022/12/01 09:01:53;;;;;;;;;;;21.60;43.10;;;;;;5069701;27;20334;-55
2022/12/01 09:04:19;;;;;;;;;;;21.60;43.00;;;;;;5051107;28;19928;-55
2022/12/01 09:06:45;;;;;;;;;;;21.60;42.80;;;;;;5053957;28;19913;-56
2022/12/01 09:09:11;;;;;;;;;;;21.70;42.90;;;;;;5059304;28;19919;-55
2022/12/01 09:11:37;;;;;;;;;;;21.70;42.80;;;;;;5064362;28;19917;-56
2022/12/01 09:14:02;;;;;;;;;;;21.80;42.90;;;;;;5053842;27;20372;-55
2022/12/01 09:16:28;;;;;;;;;;;21.80;42.90;;;;;;5062671;28;19979;-55
2022/12/01 09:18:53;;;;;;;;;;;21.80;42.80;;;;;;5054050;28;19923;-55
2022/12/01 09:21:23;;;;;;;;;;;21.90;42.80;;;;;;5066253;27;20040;-54
2022/12/01 09:23:48;;;;;;;;;;;21.90;42.70;;;;;;5104883;27;19915;-58
2022/12/01 09:26:17;;;;;;;;;;;22.00;42.80;;;;;;5089256;27;19920;-56
2022/12/01 09:28:43;;;;;;;;;;;22.00;42.80;;;;;;5085695;27;20015;-55
2022/12/01 09:31:09;;;;;;;;;;;22.00;42.60;;;;;;5059851;28;19956;-55
2022/12/01 09:33:35;;;;;;;;;;;22.10;43.30;;;;;;5053115;28;20337;-54
2022/12/01 09:36:00;;;;;;;;;;;22.00;42.50;;;;;;5055131;28;19913;-55
2022/12/01 09:38:29;;;;;;;;;;;22.10;42.60;;;;;;5070561;27;19998;-55
2022/12/01 09:40:55;;;;;;;;;;;22.10;42.60;;;;;;5113900;27;20317;-55
2022/12/01 09:43:21;;;;;;;;;;;22.10;42.60;;;;;;5057085;28;19917;-56
2022/12/01 09:45:48;;;;;;;;;;;22.10;42.50;;;;;;5037167;27;19915;-56
2022/12/01 09:48:24;;;;;;;;;;;22.10;43.10;;;;;;5038846;27;20019;-56
2022/12/01 09:50:49;;;;;;;;;;;22.20;42.60;;;;;;5052315;28;19917;-55
2022/12/01 09:53:16;;;;;;;;;;;22.20;42.60;;;;;;5060848;27;19919;-55
2022/12/01 09:55:43;;;;;;;;;;;22.10;42.50;;;;;;5068217;27;19924;-56
2022/12/01 09:58:14;;;;;;;;;;;22.20;42.60;;;;;;5053205;28;19923;-54
2022/12/01 10:00:41;;;;;;;;;;;22.20;42.60;;;;;;5037229;28;19948;-55
2022/12/01 10:03:12;;;;;;;;;;;22.20;42.50;;;;;;5055646;27;19947;-55
2022/12/01 10:05:44;;;;;;;;;;;22.20;42.50;;;;;;5055857;28;19960;-54
2022/12/01 10:08:11;;;;;;;;;;;22.20;42.50;;;;;;5056656;28;19957;-55
2022/12/01 10:10:38;;;;;;;;;;;22.20;42.50;;;;;;5056486;28;20388;-55
2022/12/01 10:13:20;;;;;;;;;;;22.20;42.60;;;;;;5070491;27;19917;-55
2022/12/01 10:15:52;;;;;;;;;;;22.20;42.50;;;;;;5065579;27;19913;-55
2022/12/01 10:18:23;;;;;;;;;;;22.30;42.50;;;;;;5064521;27;19924;-56
2022/12/01 10:21:12;;;;;;;;;;;22.30;42.50;;;;;;5104429;27;19928;-55
2022/12/01 10:23:57;;;;;;;;;;;22.30;42.50;;;;;;5063952;28;21294;-56
2022/12/01 10:26:28;;;;;;;;;;;22.30;42.50;;;;;;5052485;28;19917;-55
2022/12/01 10:28:57;;;;;;;;;;;22.30;42.50;;;;;;5043217;27;19968;-56
2022/12/01 10:31:37;;;;;;;;;;;22.30;42.50;;;;;;5107300;27;20013;-57
2022/12/01 10:34:02;;;;;;;;;;;22.30;42.40;;;;;;5083938;27;19912;-55
2022/12/01 10:36:28;;;;;;;;;;;22.30;42.40;;;;;;5078447;27;19923;-55
2022/12/01 10:38:53;;;;;;;;;;;22.30;42.40;;;;;;5059582;27;19916;-55
2022/12/01 10:41:19;;;;;;;;;;;22.40;42.50;;;;;;5057907;28;19916;-56
2022/12/01 10:43:46;;;;;;;;;;;22.40;42.50;;;;;;5039642;28;20294;-56
2022/12/01 10:46:22;;;;;;;;;;;22.40;42.50;;;;;;5049413;27;19983;-56
2022/12/01 10:48:52;;;;;;;;;;;22.40;42.50;;;;;;5047094;28;19921;-55
2022/12/01 10:51:19;;;;;;;;;;;22.40;42.40;;;;;;5054734;28;19921;-56
2022/12/01 10:53:44;;;;;;;;;;;22.40;42.40;;;;;;5060521;28;19970;-55
2022/12/01 10:56:19;;;;;;;;;;;22.40;42.30;;;;;;5060643;28;19940;-56
2022/12/01 10:58:54;;;;;;;;;;;22.50;42.40;;;;;;5064020;27;19973;-56
2022/12/01 11:01:25;;;;;;;;;;;22.50;42.40;;;;;;5094851;27;19915;-56
2022/12/01 11:03:51;;;;;;;;;;;22.50;42.30;;;;;;5068582;27;19999;-56
2022/12/01 11:06:19;;;;;;;;;;;22.50;42.40;;;;;;5038375;28;19909;-55
2022/12/01 11:08:49;;;;;;;;;;;22.50;42.40;;;;;;5057850;27;19961;-56
2022/12/01 11:11:28;;;;;;;;;;;22.50;42.40;;;;;;5053847;27;19964;-57
2022/12/01 11:13:53;;;;;;;;;;;22.50;42.50;;;;;;5054055;28;19973;-55
2022/12/01 11:16:34;;;;;;;;;;;22.50;42.40;;;;;;5051113;28;19916;-55
2022/12/01 11:19:07;;;;;;;;;;;22.50;42.40;;;;;;5076552;27;19913;-56
2022/12/01 11:21:32;;;;;;;;;;;22.50;42.30;;;;;;5084402;27;19921;-55
2022/12/01 11:23:57;;;;;;;;;;;22.50;42.40;;;;;;5058287;28;20372;-55
2022/12/01 11:26:24;;;;;;;;;;;22.60;42.30;;;;;;5077687;27;20316;-55
2022/12/01 11:28:51;;;;;;;;;;;22.60;42.30;;;;;;5047546;27;19913;-55
2022/12/01 11:31:17;;;;;;;;;;;22.60;42.20;;;;;;5056549;28;19955;-55
2022/12/01 11:33:44;;;;;;;;;;;22.60;42.20;;;;;;5077052;27;19959;-55
2022/12/01 11:36:09;;;;;;;;;;;22.60;42.20;;;;;;5043886;27;19916;-56
2022/12/01 11:38:35;;;;;;;;;;;22.60;42.20;;;;;;5084746;27;20259;-55
2022/12/01 11:41:00;;;;;;;;;;;22.60;42.30;;;;;;5070819;27;19916;-55
2022/12/01 11:43:30;;;;;;;;;;;22.60;42.20;;;;;;5064510;28;19913;-55
2022/12/01 11:45:55;;;;;;;;;;;22.60;42.30;;;;;;5075731;27;19913;-57
2022/12/01 11:48:21;;;;;;;;;;;22.60;42.30;;;;;;5060387;28;20382;-55
2022/12/01 11:51:02;;;;;;;;;;;22.60;42.20;;;;;;5075407;27;20325;-56
2022/12/01 11:53:34;;;;;;;;;;;22.60;42.20;;;;;;5062168;27;20279;-55
2022/12/01 11:56:21;;;;;;;;;;;22.70;42.10;;;;;;5081552;27;19915;-55
2022/12/01 11:58:47;;;;;;;;;;;22.70;42.00;;;;;;5040280;27;20364;-55
2022/12/01 12:01:23;;;;;;;;;;;22.70;41.90;;;;;;5038905;27;19923;-58
2022/12/01 12:04:09;;;;;;;;;;;22.70;42.00;;;;;;5055336;28;19917;-54
2022/12/01 12:06:43;;;;;;;;;;;22.70;41.80;;;;;;5063043;28;19954;-56
2022/12/01 12:09:22;;;;;;;;;;;22.70;41.90;;;;;;5056816;27;21693;-56
2022/12/01 12:12:04;;;;;;;;;;;22.70;41.90;;;;;;5048440;28;20015;-57
2022/12/01 12:14:29;;;;;;;;;;;22.60;42.00;;;;;;5103221;27;19920;-55
2022/12/01 12:16:54;;;;;;;;;;;22.70;42.00;;;;;;5132133;27;20364;-56
2022/12/01 12:19:29;;;;;;;;;;;22.70;41.90;;;;;;5053379;28;20380;-56
2022/12/01 12:21:54;;;;;;;;;;;22.70;41.80;;;;;;5063826;28;19980;-55
2022/12/01 12:24:36;;;;;;;;;;;22.80;41.90;;;;;;5054998;28;19916;-56
2022/12/01 12:27:18;;;;;;;;;;;22.80;41.90;;;;;;5044578;27;19934;-55
2022/12/01 12:29:59;;;;;;;;;;;22.80;41.90;;;;;;5057385;27;19915;-56
2022/12/01 12:32:24;;;;;;;;;;;22.80;41.80;;;;;;5079676;27;19952;-56
2022/12/01 12:34:50;;;;;;;;;;;22.80;41.70;;;;;;5063672;27;20041;-56
2022/12/01 12:37:27;;;;;;;;;;;22.90;41.80;;;;;;5052605;28;19912;-55
2022/12/01 12:40:08;;;;;;;;;;;22.90;41.60;;;;;;5062258;28;19923;-57
2022/12/01 12:42:39;;;;;;;;;;;22.90;41.80;;;;;;5068390;28;19995;-56
2022/12/01 12:45:05;;;;;;;;;;;22.90;41.60;;;;;;5057123;28;19918;-56
2022/12/01 12:47:36;;;;;;;;;;;22.90;41.60;;;;;;5064320;28;19916;-57
2022/12/01 12:50:17;;;;;;;;;;;22.90;41.60;;;;;;5069922;27;19932;-57
2022/12/01 12:52:44;;;;;;;;;;;22.90;41.40;;;;;;5045050;28;20061;-55
2022/12/01 12:55:24;;;;;;;;;;;23.00;41.50;;;;;;5039828;27;19909;-55
2022/12/01 12:57:54;;;;;;;;;;;23.00;41.50;;;;;;5075308;27;19918;-55
2022/12/01 13:00:21;;;;;;;;;;;23.00;41.50;;;;;;5049774;27;19913;-55
2022/12/01 13:02:48;;;;;;;;;;;23.00;41.50;;;;;;5056778;27;19933;-56
2022/12/01 13:05:19;;;;;;;;;;;23.00;41.50;;;;;;5060219;27;20414;-56
2022/12/01 13:07:49;;;;;;;;;;;23.00;41.40;;;;;;5088970;27;19917;-55
2022/12/01 13:10:23;;;;;;;;;;;23.00;41.40;;;;;;5079010;27;20038;-55
2022/12/01 13:12:55;;;;;;;;;;;23.00;41.50;;;;;;5060158;27;20375;-57
2022/12/01 13:15:20;;;;;;;;;;;23.00;41.50;;;;;;5055654;27;19955;-55
2022/12/01 13:17:53;;;;;;;;;;;23.00;41.40;;;;;;5038510;28;20264;-56
2022/12/01 13:20:19;;;;;;;;;;;23.00;41.20;;;;;;5043294;27;21065;-56
2022/12/01 13:22:45;;;;;;;;;;;23.10;41.60;;;;;;5116953;27;19920;-57
2022/12/01 13:25:11;;;;;;;;;;;23.00;41.30;;;;;;5072512;27;19917;-55
2022/12/01 13:27:37;;;;;;;;;;;23.10;41.40;;;;;;5050352;28;19916;-55
2022/12/01 13:30:02;;;;;;;;;;;23.10;41.30;;;;;;5084156;27;20331;-56
2022/12/01 13:32:31;;;;;;;;;;;23.10;41.50;;;;;;5064432;27;19920;-56
2022/12/01 13:34:57;;;;;;;;;;;23.10;41.30;;;;;;5076027;27;20000;-56
2022/12/01 13:37:29;;;;;;;;;;;23.10;41.50;;;;;;5066422;27;20003;-57
2022/12/01 13:39:55;;;;;;;;;;;23.10;41.30;;;;;;5054897;28;19913;-56
2022/12/01 13:42:24;;;;;;;;;;;23.10;41.30;;;;;;5054971;28;19936;-56
2022/12/01 13:44:56;;;;;;;;;;;23.10;41.30;;;;;;5073828;27;19952;-56
2022/12/01 13:47:29;;;;;;;;;;;23.20;41.50;;;;;;5066911;27;19940;-56
2022/12/01 13:49:54;;;;;;;;;;;23.10;41.20;;;;;;5074733;27;20472;-56
2022/12/01 13:52:20;;;;;;;;;;;23.20;41.30;;;;;;5039699;28;19921;-55
2022/12/01 13:55:04;;;;;;;;;;;23.20;41.30;;;;;;5051453;27;20364;-58
2022/12/01 13:57:30;;;;;;;;;;;23.20;41.40;;;;;;5107030;27;20015;-56
2022/12/01 13:59:59;;;;;;;;;;;23.20;41.30;;;;;;5031742;28;20273;-55
2022/12/01 14:02:33;;;;;;;;;;;23.10;41.20;;;;;;5051182;27;19999;-56
2022/12/01 14:05:18;;;;;;;;;;;23.20;41.40;;;;;;5054208;28;19916;-55
2022/12/01 14:07:43;;;;;;;;;;;23.20;41.30;;;;;;5054046;28;19917;-55
2022/12/01 14:10:29;;;;;;;;;;;23.20;41.10;;;;;;5039953;28;19913;-57
2022/12/01 14:12:55;;;;;;;;;;;23.20;41.40;;;;;;5102654;27;19927;-58
2022/12/01 14:15:24;;;;;;;;;;;23.20;41.20;;;;;;5068924;27;20566;-56
2022/12/01 14:18:00;;;;;;;;;;;23.20;41.30;;;;;;5070260;27;19919;-56
2022/12/01 14:20:26;;;;;;;;;;;23.30;41.20;;;;;;5046899;28;19921;-58
2022/12/01 14:23:23;;;;;;;;;;;23.30;41.30;;;;;;5061954;28;19916;-55
2022/12/01 14:26:08;;;;;;;;;;;23.20;41.00;;;;;;5055683;27;19991;-56
2022/12/01 14:28:52;;;;;;;;;;;23.30;41.50;;;;;;5105199;27;19924;-55
2022/12/01 14:31:17;;;;;;;;;;;23.20;41.30;;;;;;5067574;27;20068;-55